»·PEaware :: DCM424 1L1-2O7

DCM424 :: 1L1-2O7

FLIGHT INFORMATION

Flight Status: Arrived
Operator: DotCom
More flights by this operator :: More flights under this callsign
Pilot: Ben H. (9170)
Aircraft: BEECH AIRCRAFT SUPER KING AIR 350
(B350)
More flights by this aircraft type
Origin: 1L1 Lincoln Co
United States
Destination: 2O7 Independence
United States
More flights between these airports :: More routes between these airports
Route: +DCT
File this flight plan on PilotEdge
Remarks:
Altitude:
(Current/Filed)
16,500ft
Speed:
(Current/Filed)
240kts
Departed: 05-Apr-19 08:07 PM
Arrived: 05-Apr-19 09:23 PM
Distance/Time
Traveled:
190nm/1:15
Distance/Time
To Go:
Arrived

Flight Plot

Page will automatically refresh every two minutes.


Map Options




Map Legend


Flown Route
Filed Route
Departure Airport
Arrival Airport
Navaid (VOR, NDB)
Fix

Horizontal Profiles

Position Reports

Time Latitude Longitude Heading Altitude Ground
Speed
05-Apr-19 19:54 37.784636 -114.423140 91 4833ft 0kts
05-Apr-19 19:55 37.784636 -114.423140 91 4833ft 0kts
05-Apr-19 19:56 37.784636 -114.423140 91 4833ft 0kts
05-Apr-19 19:57 37.784636 -114.423140 91 4833ft 0kts
05-Apr-19 19:58 37.784636 -114.423140 91 4833ft 0kts
05-Apr-19 19:59 37.784636 -114.423140 0 4833ft 0kts
05-Apr-19 20:00 37.784636 -114.423140 91 4833ft 0kts
05-Apr-19 20:01 37.784636 -114.423140 91 4833ft 0kts
05-Apr-19 20:02 37.783924 -114.422965 90 4833ft 12kts
05-Apr-19 20:03 37.786588 -114.422079 3 4833ft 20kts
05-Apr-19 20:04 37.793135 -114.421793 0 4833ft 20kts
05-Apr-19 20:05 37.793536 -114.420585 173 4833ft 19kts
05-Apr-19 20:06 37.762285 -114.422778 193 5367ft 163kts
05-Apr-19 20:07 37.744987 -114.379352 52 6961ft 191kts
05-Apr-19 20:08 37.779767 -114.394343 261 8485ft 156kts
05-Apr-19 20:09 37.766369 -114.444190 244 9885ft 163kts
05-Apr-19 20:10 37.731072 -114.490536 209 10463ft 200kts
05-Apr-19 20:11 37.685504 -114.534436 249 10717ft 215kts
05-Apr-19 20:12 37.691453 -114.614818 272 10687ft 229kts
05-Apr-19 20:13 37.744111 -114.605511 43 10127ft 281kts
05-Apr-19 20:14 37.760267 -114.584291 53 10182ft 0kts
05-Apr-19 20:16 37.784636 -114.423140 91 4833ft 0kts
05-Apr-19 20:17 37.784636 -114.423140 91 4833ft 0kts
05-Apr-19 20:18 37.784636 -114.423140 91 4833ft 0kts
05-Apr-19 20:19 37.784636 -114.423140 91 4833ft 0kts
05-Apr-19 20:20 37.784636 -114.423140 91 4833ft 0kts
05-Apr-19 20:21 37.784636 -114.423140 91 4833ft 0kts
05-Apr-19 20:22 37.784636 -114.423140 91 4833ft 0kts
05-Apr-19 20:23 37.784525 -114.423146 203 4833ft 5kts
05-Apr-19 20:24 37.783926 -114.422823 89 4833ft 0kts
05-Apr-19 20:25 37.787284 -114.422026 3 4833ft 21kts
05-Apr-19 20:26 37.793719 -114.421609 55 4833ft 14kts
05-Apr-19 20:27 37.793753 -114.421006 93 4833ft 9kts
05-Apr-19 20:28 37.768189 -114.421963 189 5335ft 152kts
05-Apr-19 20:29 37.729460 -114.440593 269 6843ft 164kts
05-Apr-19 20:30 37.748706 -114.494247 294 8389ft 174kts
05-Apr-19 20:31 37.754855 -114.552344 255 9853ft 169kts
05-Apr-19 20:32 37.742403 -114.609848 249 11239ft 171kts
05-Apr-19 20:33 37.728543 -114.667675 248 12522ft 174kts
05-Apr-19 20:34 37.714305 -114.726939 249 13788ft 178kts
05-Apr-19 20:35 37.699827 -114.787082 249 15124ft 180kts
05-Apr-19 20:36 37.684860 -114.847823 248 16334ft 183kts
05-Apr-19 20:37 37.669843 -114.909736 249 17444ft 186kts
05-Apr-19 20:38 37.654632 -114.972429 249 18616ft 189kts
05-Apr-19 20:39 37.639210 -115.036085 250 19807ft 191kts
05-Apr-19 20:40 37.623487 -115.100682 251 20894ft 193kts
05-Apr-19 20:41 37.607485 -115.166155 251 21873ft 197kts
05-Apr-19 20:42 37.590292 -115.236418 252 21907ft 212kts
05-Apr-19 20:43 37.572785 -115.307387 251 21906ft 214kts
05-Apr-19 20:44 37.554931 -115.379569 252 21911ft 218kts
05-Apr-19 20:45 37.536149 -115.455219 252 21909ft 232kts
05-Apr-19 20:46 37.516593 -115.533968 252 21907ft 239kts
05-Apr-19 20:47 37.496537 -115.614513 252 21905ft 243kts
05-Apr-19 20:48 37.476095 -115.696310 251 21910ft 245kts
05-Apr-19 20:49 37.455408 -115.778844 251 21909ft 247kts
05-Apr-19 20:50 37.434633 -115.861443 251 21909ft 248kts
05-Apr-19 20:51 37.413823 -115.943917 251 21907ft 248kts
05-Apr-19 20:52 37.392819 -116.026888 251 21906ft 248kts
05-Apr-19 20:53 37.371935 -116.109116 251 21906ft 248kts
05-Apr-19 20:54 37.350810 -116.192012 251 21911ft 248kts
05-Apr-19 20:55 37.329746 -116.274401 251 21924ft 247kts
05-Apr-19 20:56 37.308633 -116.356708 251 21924ft 248kts
05-Apr-19 20:57 37.287389 -116.439258 251 21926ft 247kts
05-Apr-19 20:58 37.266162 -116.521476 251 21963ft 246kts
05-Apr-19 20:59 37.245013 -116.603126 251 22006ft 246kts
05-Apr-19 21:00 37.223740 -116.684980 251 22037ft 246kts
05-Apr-19 21:01 37.202371 -116.766918 250 22037ft 248kts
05-Apr-19 21:02 37.180865 -116.849130 251 22035ft 248kts
05-Apr-19 21:03 37.159163 -116.931825 251 22036ft 249kts
05-Apr-19 21:04 37.137463 -117.014244 252 22034ft 249kts
05-Apr-19 21:05 37.115549 -117.097229 253 22034ft 250kts
05-Apr-19 21:06 37.093624 -117.180018 254 22034ft 251kts
05-Apr-19 21:07 37.071447 -117.263467 255 22029ft 253kts
05-Apr-19 21:08 37.049071 -117.347390 255 22021ft 255kts
05-Apr-19 21:09 37.027191 -117.429487 256 21191ft 243kts
05-Apr-19 21:10 37.005601 -117.509657 256 19653ft 242kts
05-Apr-19 21:11 36.984087 -117.589477 256 18167ft 243kts
05-Apr-19 21:12 36.962498 -117.669687 256 16730ft 244kts
05-Apr-19 21:13 36.940708 -117.750157 255 15358ft 244kts
05-Apr-19 21:14 36.919944 -117.826318 256 14885ft 209kts
05-Apr-19 21:15 36.901783 -117.890496 253 14280ft 213kts
05-Apr-19 21:16 36.878725 -117.961684 246 13290ft 224kts
05-Apr-19 21:18 36.840784 -118.022890 233 12264ft 220kts
05-Apr-19 21:19 36.798579 -118.073906 210 10407ft 214kts
05-Apr-19 21:20 36.757394 -118.119826 230 8567ft 193kts
05-Apr-19 21:21 36.745381 -118.170045 344 6444ft 170kts
05-Apr-19 21:22 36.790349 -118.190504 334 4481ft 159kts
05-Apr-19 21:23 36.818393 -118.205978 152 3913ft 10kts
05-Apr-19 21:24 36.810457 -118.201957 194 3913ft 8kts
05-Apr-19 21:25 36.809926 -118.203499 17 3913ft 0kts
05-Apr-19 21:26 36.809926 -118.203499 17 3913ft 0kts
05-Apr-19 21:27 36.809926 -118.203499 17 3913ft 0kts
05-Apr-19 21:28 36.809926 -118.203499 17 3913ft 0kts

Navigation Log

Ident Type
Flight plan parsing failed, navigation log unavailable